Time;durP1;ratioP1;P1;durP2;ratioP2;P2;SDS_P1;SDS_P2;PMS_P1;PMS_P2;Temp;Humidity;BMP_temperature;BMP_pressure;BME280_temperature;BME280_humidity;BME280_pressure;Samples;Min_cycle;Max_cycle;Signal;HPM_P1;HPM_P2
2023/06/13 00:00:42;;;;;;;2.50;1.90;;;26.00;40.90;;;;;;5033415;28;20025;-65
2023/06/13 00:03:09;;;;;;;2.53;1.80;;;26.00;40.90;;;;;;5031811;28;20522;-65
2023/06/13 00:05:34;;;;;;;2.70;1.80;;;25.90;40.90;;;;;;5033016;28;20021;-65
2023/06/13 00:08:00;;;;;;;2.70;2.10;;;25.90;41.40;;;;;;5033762;28;20021;-65
2023/06/13 00:10:26;;;;;;;2.28;1.75;;;25.90;40.90;;;;;;5033401;28;20029;-65
2023/06/13 00:12:51;;;;;;;2.60;1.80;;;25.90;41.00;;;;;;5033373;28;20108;-65
2023/06/13 00:15:18;;;;;;;2.25;1.80;;;25.90;41.00;;;;;;5032787;28;20037;-65
2023/06/13 00:17:45;;;;;;;1.90;1.70;;;25.90;41.00;;;;;;5036025;28;20035;-65
2023/06/13 00:20:12;;;;;;;2.40;1.80;;;25.90;41.10;;;;;;5033540;28;20018;-65
2023/06/13 00:22:38;;;;;;;2.72;1.60;;;25.90;41.10;;;;;;5033063;28;20020;-65
2023/06/13 00:25:03;;;;;;;2.30;1.70;;;25.90;41.10;;;;;;5035238;28;20106;-65
2023/06/13 00:27:31;;;;;;;2.60;1.80;;;25.90;41.10;;;;;;5032867;28;20511;-65
2023/06/13 00:29:57;;;;;;;2.35;1.70;;;25.80;41.10;;;;;;5033727;28;20028;-65
2023/06/13 00:32:23;;;;;;;1.90;1.45;;;25.90;41.20;;;;;;5035443;28;20042;-65
2023/06/13 00:34:48;;;;;;;2.70;1.73;;;25.80;41.20;;;;;;5036647;28;20037;-65
2023/06/13 00:37:16;;;;;;;2.70;2.03;;;25.80;41.20;;;;;;5018920;28;20384;-65
2023/06/13 00:39:42;;;;;;;2.30;1.80;;;25.80;41.20;;;;;;5016291;28;20079;-65
2023/06/13 00:42:08;;;;;;;2.00;1.58;;;25.80;41.30;;;;;;5033422;28;20033;-65
2023/06/13 00:44:34;;;;;;;2.60;1.80;;;25.80;41.30;;;;;;5030934;28;20037;-65
2023/06/13 00:47:02;;;;;;;2.25;1.70;;;25.80;41.30;;;;;;5033983;28;20029;-65
2023/06/13 00:49:28;;;;;;;2.58;1.80;;;25.80;41.30;;;;;;5019502;28;20030;-65
2023/06/13 00:52:00;;;;;;;2.40;1.75;;;25.80;41.40;;;;;;5017066;28;20107;-65
2023/06/13 00:54:26;;;;;;;2.40;1.90;;;25.80;41.40;;;;;;5031841;28;20452;-65
2023/06/13 00:56:52;;;;;;;2.10;1.60;;;25.70;41.30;;;;;;5030327;28;20465;-65
2023/06/13 00:59:18;;;;;;;2.28;1.70;;;25.80;41.40;;;;;;5035782;28;20017;-65
2023/06/13 01:01:43;;;;;;;2.22;1.60;;;25.70;41.40;;;;;;5035919;28;20116;-65
2023/06/13 01:04:13;;;;;;;2.42;1.75;;;25.80;41.50;;;;;;5033213;28;20103;-65
2023/06/13 01:06:44;;;;;;;2.88;1.70;;;25.70;41.50;;;;;;5034004;28;20028;-65
2023/06/13 01:09:12;;;;;;;2.22;1.65;;;25.70;41.50;;;;;;5037088;28;20476;-65
2023/06/13 01:12:06;;;;;;;2.47;1.75;;;25.70;41.50;;;;;;5036311;28;20025;-65
2023/06/13 01:14:46;;;;;;;2.25;1.58;;;25.70;41.50;;;;;;5003696;28;20040;-65
2023/06/13 01:17:25;;;;;;;2.45;1.90;;;25.70;41.60;;;;;;5011473;28;20029;-65
2023/06/13 01:19:53;;;;;;;2.20;1.80;;;25.70;41.60;;;;;;5020232;28;20155;-65
2023/06/13 01:22:27;;;;;;;2.10;1.65;;;25.70;41.60;;;;;;5037436;28;20468;-65
2023/06/13 01:25:21;;;;;;;2.50;1.90;;;25.60;41.50;;;;;;5037615;28;20075;-65
2023/06/13 01:27:49;;;;;;;2.38;1.83;;;25.70;41.60;;;;;;5035641;28;20025;-65
2023/06/13 01:30:18;;;;;;;2.50;1.67;;;25.60;41.60;;;;;;5021930;28;20021;-65
2023/06/13 01:32:47;;;;;;;2.00;1.60;;;25.60;41.60;;;;;;5035286;28;20100;-65
2023/06/13 01:35:14;;;;;;;2.28;1.60;;;25.60;41.70;;;;;;5038553;28;20481;-65
2023/06/13 01:37:40;;;;;;;1.90;1.50;;;25.60;41.70;;;;;;5017903;28;20543;-65
2023/06/13 01:40:09;;;;;;;2.78;1.80;;;25.60;41.70;;;;;;5036222;28;20088;-65
2023/06/13 01:42:35;;;;;;;2.10;1.50;;;25.60;41.80;;;;;;5032008;28;20492;-65
2023/06/13 01:45:02;;;;;;;2.00;1.60;;;25.60;41.70;;;;;;5034866;28;20257;-65
2023/06/13 01:47:37;;;;;;;2.20;1.60;;;25.60;41.80;;;;;;5038674;28;20121;-65
2023/06/13 01:50:26;;;;;;;2.42;1.63;;;25.60;41.80;;;;;;5038303;28;20036;-65
2023/06/13 01:53:10;;;;;;;2.00;1.50;;;25.60;41.90;;;;;;5036407;28;20013;-65
2023/06/13 01:55:42;;;;;;;2.22;1.70;;;25.60;41.90;;;;;;5038452;28;20037;-65
2023/06/13 01:58:24;;;;;;;2.40;1.80;;;25.50;41.80;;;;;;5033778;28;20027;-65
2023/06/13 02:00:55;;;;;;;2.47;1.50;;;25.50;41.80;;;;;;5035766;28;20124;-65
2023/06/13 02:03:22;;;;;;;1.83;1.40;;;25.50;41.90;;;;;;5018216;28;20021;-65
2023/06/13 02:05:48;;;;;;;2.30;1.60;;;25.50;41.90;;;;;;5035353;28;20029;-65
2023/06/13 02:08:13;;;;;;;2.10;1.60;;;25.50;41.90;;;;;;5020136;28;20026;-65
2023/06/13 02:10:39;;;;;;;2.22;1.70;;;25.50;42.00;;;;;;5037310;28;20387;-65
2023/06/13 02:13:05;;;;;;;2.20;1.60;;;25.50;42.00;;;;;;5036868;28;20963;-65
2023/06/13 02:15:31;;;;;;;2.10;1.60;;;25.50;42.50;;;;;;5037614;28;20053;-65
2023/06/13 02:17:56;;;;;;;2.33;1.55;;;25.40;42.00;;;;;;5023886;28;20060;-65
2023/06/13 02:20:22;;;;;;;2.10;1.48;;;25.40;42.00;;;;;;5021771;28;20083;-65
2023/06/13 02:22:48;;;;;;;2.22;1.60;;;25.40;42.00;;;;;;5036892;28;20561;-65
2023/06/13 02:25:14;;;;;;;1.92;1.60;;;25.40;42.00;;;;;;5036256;28;20164;-65
2023/06/13 02:27:40;;;;;;;2.35;1.67;;;25.40;42.00;;;;;;5037883;28;20060;-65
2023/06/13 02:30:08;;;;;;;2.08;1.30;;;25.40;42.10;;;;;;5035688;28;20491;-65
2023/06/13 02:32:36;;;;;;;1.90;1.50;;;25.40;42.10;;;;;;5035097;28;20425;-65
2023/06/13 02:35:02;;;;;;;2.10;1.52;;;25.40;42.10;;;;;;5038776;28;20018;-65
2023/06/13 02:37:28;;;;;;;2.20;1.60;;;25.40;42.10;;;;;;5017679;28;20025;-65
2023/06/13 02:39:53;;;;;;;2.08;1.48;;;25.40;42.20;;;;;;5032555;28;20491;-65
2023/06/13 02:42:19;;;;;;;1.98;1.40;;;25.30;42.10;;;;;;5034665;28;20033;-65
2023/06/13 02:44:45;;;;;;;2.22;1.58;;;25.40;42.20;;;;;;5018881;28;20064;-65
2023/06/13 02:47:10;;;;;;;2.20;1.70;;;25.40;42.20;;;;;;5036700;28;20034;-65
2023/06/13 02:49:36;;;;;;;1.85;1.40;;;25.40;42.20;;;;;;5040026;28;20057;-65
2023/06/13 02:52:02;;;;;;;2.33;1.60;;;25.40;42.20;;;;;;5037372;28;20477;-65
2023/06/13 02:54:27;;;;;;;3.17;1.65;;;25.40;42.20;;;;;;5020544;28;20029;-65
2023/06/13 02:56:53;;;;;;;2.22;1.50;;;25.40;42.20;;;;;;5035425;28;20018;-65
2023/06/13 02:59:19;;;;;;;2.30;1.60;;;25.30;42.20;;;;;;5015774;28;20429;-65
2023/06/13 03:01:45;;;;;;;2.08;1.45;;;25.30;42.20;;;;;;5039057;28;20021;-65
2023/06/13 03:04:11;;;;;;;2.45;1.70;;;25.30;42.20;;;;;;5035397;28;20045;-65
2023/06/13 03:06:41;;;;;;;1.90;1.35;;;25.30;42.20;;;;;;5032693;28;20040;-65
2023/06/13 03:09:07;;;;;;;2.00;1.50;;;25.30;42.20;;;;;;5038273;28;20025;-65
2023/06/13 03:11:33;;;;;;;2.20;1.50;;;25.30;42.30;;;;;;5036278;28;20540;-65
2023/06/13 03:13:59;;;;;;;1.95;1.55;;;25.30;42.20;;;;;;5037593;28;20116;-65
2023/06/13 03:16:27;;;;;;;2.08;1.50;;;25.30;42.30;;;;;;5021616;28;20108;-65
2023/06/13 03:18:53;;;;;;;2.00;1.50;;;25.30;42.30;;;;;;5036627;28;20056;-65
2023/06/13 03:21:18;;;;;;;2.28;1.60;;;25.30;42.30;;;;;;5018694;28;20401;-65
2023/06/13 03:23:44;;;;;;;2.13;1.60;;;25.30;42.30;;;;;;5035049;28;20550;-65
2023/06/13 03:26:10;;;;;;;1.60;1.30;;;25.30;42.30;;;;;;5020427;28;20049;-65
2023/06/13 03:28:36;;;;;;;2.28;1.60;;;25.30;42.30;;;;;;5035395;28;20353;-66
2023/06/13 03:31:02;;;;;;;2.67;1.42;;;25.30;42.30;;;;;;5037621;28;20025;-65
2023/06/13 03:33:28;;;;;;;2.00;1.40;;;25.30;42.30;;;;;;5019953;28;20501;-65
2023/06/13 03:35:53;;;;;;;2.08;1.48;;;25.30;42.30;;;;;;5034920;28;20174;-65
2023/06/13 03:38:20;;;;;;;1.98;1.45;;;25.20;42.30;;;;;;5031175;28;20025;-65
2023/06/13 03:40:46;;;;;;;1.92;1.52;;;25.20;42.30;;;;;;5035901;28;20388;-65
2023/06/13 03:43:11;;;;;;;2.03;1.50;;;25.20;42.30;;;;;;5033985;28;20593;-65
2023/06/13 03:45:37;;;;;;;2.20;1.50;;;25.20;42.30;;;;;;5036521;28;20116;-65
2023/06/13 03:48:03;;;;;;;1.98;1.55;;;25.20;42.30;;;;;;5034340;28;20029;-65
2023/06/13 03:50:28;;;;;;;1.92;1.50;;;25.20;42.40;;;;;;5018743;28;20028;-65
2023/06/13 03:52:54;;;;;;;2.17;1.60;;;25.20;42.40;;;;;;5034706;28;20019;-65
2023/06/13 03:55:20;;;;;;;2.20;1.60;;;25.20;42.40;;;;;;5040888;28;20028;-65
2023/06/13 03:57:45;;;;;;;2.13;1.50;;;25.20;42.40;;;;;;5020747;28;20025;-65
2023/06/13 04:00:12;;;;;;;1.95;1.42;;;25.20;42.40;;;;;;5020162;28;20026;-65
2023/06/13 04:02:41;;;;;;;2.13;1.50;;;25.20;42.40;;;;;;5034945;28;20083;-64
2023/06/13 04:05:08;;;;;;;1.88;1.42;;;25.20;42.40;;;;;;5034435;28;20028;-65
2023/06/13 04:07:35;;;;;;;2.20;1.50;;;25.20;42.40;;;;;;5034166;28;20368;-65
2023/06/13 04:10:01;;;;;;;1.88;1.45;;;25.20;42.40;;;;;;5030766;28;20021;-65
2023/06/13 04:12:28;;;;;;;2.03;1.50;;;25.20;42.40;;;;;;5034990;28;20093;-65
2023/06/13 04:14:53;;;;;;;2.10;1.40;;;25.20;42.40;;;;;;5035234;28;20021;-65
2023/06/13 04:17:19;;;;;;;1.90;1.50;;;25.20;42.40;;;;;;5021050;28;20341;-65
2023/06/13 04:19:44;;;;;;;2.17;1.50;;;25.10;42.30;;;;;;5033179;28;20132;-65
2023/06/13 04:22:10;;;;;;;2.10;1.60;;;25.10;42.40;;;;;;5031314;28;20057;-65
2023/06/13 04:24:36;;;;;;;2.28;1.60;;;25.10;42.40;;;;;;5036497;28;20094;-65
2023/06/13 04:27:03;;;;;;;2.00;1.55;;;25.10;42.40;;;;;;5035361;28;20029;-65
2023/06/13 04:29:30;;;;;;;2.25;1.60;;;25.10;42.40;;;;;;5015298;28;20030;-65
2023/06/13 04:31:56;;;;;;;2.20;1.65;;;25.10;42.40;;;;;;5035528;28;20029;-65
2023/06/13 04:34:24;;;;;;;2.03;1.50;;;25.10;42.40;;;;;;5020674;28;20528;-65
2023/06/13 04:36:55;;;;;;;1.98;1.63;;;25.10;42.40;;;;;;5034939;28;20384;-65
2023/06/13 04:39:23;;;;;;;2.40;1.55;;;25.10;42.40;;;;;;5013655;28;20427;-65
2023/06/13 04:41:55;;;;;;;2.38;1.80;;;25.10;42.40;;;;;;5017189;28;20021;-65
2023/06/13 04:44:28;;;;;;;1.90;1.40;;;25.10;42.40;;;;;;5014515;28;20041;-65
2023/06/13 04:47:01;;;;;;;2.10;1.70;;;25.10;42.40;;;;;;5032613;28;20532;-65
2023/06/13 04:49:27;;;;;;;2.25;1.60;;;25.10;42.40;;;;;;5018352;28;20029;-65
2023/06/13 04:51:57;;;;;;;2.35;1.60;;;25.10;42.40;;;;;;5034509;28;20501;-65
2023/06/13 04:54:23;;;;;;;2.15;1.60;;;25.00;42.40;;;;;;5020163;28;20029;-65
2023/06/13 04:56:49;;;;;;;2.28;1.60;;;25.00;42.40;;;;;;5023774;28;20203;-65
2023/06/13 04:59:15;;;;;;;2.40;1.60;;;25.00;42.30;;;;;;5040422;28;20492;-65
2023/06/13 05:01:40;;;;;;;2.03;1.55;;;25.00;42.40;;;;;;5036266;28;20035;-65
2023/06/13 05:04:06;;;;;;;2.00;1.42;;;25.00;42.90;;;;;;5022871;28;20029;-65
2023/06/13 05:06:34;;;;;;;2.70;1.73;;;25.00;42.40;;;;;;5040109;28;20032;-65
2023/06/13 05:09:00;;;;;;;2.33;1.70;;;25.00;42.40;;;;;;5021924;28;20021;-65
2023/06/13 05:11:25;;;;;;;2.38;1.50;;;25.00;42.40;;;;;;5035194;28;20492;-65
2023/06/13 05:13:51;;;;;;;2.30;1.60;;;25.00;42.30;;;;;;5042981;28;20112;-65
2023/06/13 05:16:18;;;;;;;1.75;1.38;;;25.00;42.30;;;;;;5035906;28;20021;-65
2023/06/13 05:18:44;;;;;;;3.30;1.60;;;25.00;42.40;;;;;;5034316;28;20456;-65
2023/06/13 05:21:16;;;;;;;2.00;1.58;;;25.00;42.40;;;;;;5037848;28;20908;-65
2023/06/13 05:23:43;;;;;;;1.90;1.42;;;25.00;42.30;;;;;;5037632;28;20086;-65
2023/06/13 05:26:10;;;;;;;2.03;1.40;;;25.00;42.40;;;;;;5037090;28;20029;-67
2023/06/13 05:28:36;;;;;;;2.33;1.58;;;25.00;42.50;;;;;;5035293;28;20465;-67
2023/06/13 05:31:02;;;;;;;2.40;1.63;;;25.00;42.50;;;;;;5036210;28;20044;-67
2023/06/13 05:33:27;;;;;;;1.83;1.48;;;25.00;42.50;;;;;;5038834;28;20048;-67
2023/06/13 05:35:53;;;;;;;1.90;1.50;;;25.00;42.50;;;;;;5040613;28;20029;-67
2023/06/13 05:38:19;;;;;;;2.30;1.50;;;25.00;42.50;;;;;;5007345;28;20101;-67
2023/06/13 05:40:44;;;;;;;2.28;1.52;;;25.00;42.40;;;;;;5004926;28;20111;-67
2023/06/13 05:43:12;;;;;;;3.00;1.60;;;25.00;42.30;;;;;;5040759;28;20025;-69
2023/06/13 05:45:38;;;;;;;2.22;1.50;;;25.10;42.40;;;;;;5035602;28;20485;-67
2023/06/13 05:48:04;;;;;;;2.13;1.58;;;25.10;42.40;;;;;;5034900;28;20022;-67
2023/06/13 05:50:29;;;;;;;1.88;1.30;;;25.10;42.30;;;;;;5037955;28;20029;-65
2023/06/13 05:52:55;;;;;;;2.80;1.70;;;25.10;42.30;;;;;;5035693;28;20048;-66
2023/06/13 05:55:21;;;;;;;2.00;1.50;;;25.10;42.20;;;;;;5034126;28;20033;-66
2023/06/13 05:57:46;;;;;;;1.85;1.40;;;25.10;42.20;;;;;;5039737;28;20028;-67
2023/06/13 06:00:13;;;;;;;2.13;1.50;;;25.10;42.10;;;;;;5022700;28;20099;-67
2023/06/13 06:02:46;;;;;;;2.10;1.60;;;25.10;42.20;;;;;;5039472;28;20448;-65
2023/06/13 06:05:13;;;;;;;1.98;1.42;;;25.10;42.00;;;;;;5004277;28;20038;-66
2023/06/13 06:07:39;;;;;;;3.05;1.70;;;25.20;42.00;;;;;;5036406;28;20033;-66
2023/06/13 06:10:05;;;;;;;2.25;1.60;;;25.20;42.00;;;;;;5035253;28;20478;-66
2023/06/13 06:12:31;;;;;;;1.95;1.58;;;25.20;41.80;;;;;;5039946;28;20029;-68
2023/06/13 06:14:57;;;;;;;2.38;1.50;;;25.20;41.70;;;;;;5036214;28;20041;-67
2023/06/13 06:17:23;;;;;;;2.40;1.30;;;25.20;41.80;;;;;;5023138;28;20449;-67
2023/06/13 06:19:49;;;;;;;2.00;1.58;;;25.20;41.90;;;;;;5039244;28;20744;-67
2023/06/13 06:22:15;;;;;;;2.63;1.60;;;25.20;41.80;;;;;;5036013;28;20022;-65
2023/06/13 06:24:42;;;;;;;2.33;1.40;;;25.20;41.70;;;;;;5034373;28;20043;-66
2023/06/13 06:27:08;;;;;;;2.85;1.60;;;25.20;41.60;;;;;;5039043;28;20035;-67
2023/06/13 06:29:33;;;;;;;2.97;1.50;;;25.30;41.70;;;;;;5037519;28;20542;-66
2023/06/13 06:31:59;;;;;;;2.85;1.45;;;25.30;41.50;;;;;;5036255;28;20369;-66
2023/06/13 06:34:24;;;;;;;2.00;1.55;;;25.30;41.50;;;;;;5038966;28;20064;-66
2023/06/13 06:36:50;;;;;;;2.15;1.50;;;25.30;41.40;;;;;;5036062;28;20111;-66
2023/06/13 06:39:16;;;;;;;1.83;1.42;;;25.30;41.40;;;;;;5039953;28;20427;-67
2023/06/13 06:41:42;;;;;;;2.40;1.50;;;25.30;41.30;;;;;;5023007;28;20033;-67
2023/06/13 06:44:08;;;;;;;1.90;1.48;;;25.30;41.30;;;;;;5038425;28;20059;-67
2023/06/13 06:46:34;;;;;;;2.28;1.40;;;25.30;41.10;;;;;;5035093;28;20491;-68
2023/06/13 06:49:01;;;;;;;2.35;1.52;;;25.40;41.30;;;;;;5041279;28;20055;-64
2023/06/13 06:51:27;;;;;;;2.85;1.50;;;25.40;41.20;;;;;;5036811;28;20025;-65
2023/06/13 06:53:52;;;;;;;2.33;1.52;;;25.40;41.20;;;;;;5037026;28;20126;-66
2023/06/13 06:56:18;;;;;;;2.67;1.80;;;25.40;41.00;;;;;;5036520;28;20359;-68
2023/06/13 06:58:44;;;;;;;2.15;1.50;;;25.40;41.10;;;;;;5019397;28;20025;-67
2023/06/13 07:01:10;;;;;;;2.63;1.80;;;25.40;40.80;;;;;;5019889;28;20025;-67
2023/06/13 07:03:35;;;;;;;3.20;1.50;;;25.40;40.70;;;;;;5020317;28;20021;-66
2023/06/13 07:06:02;;;;;;;2.30;1.60;;;25.40;40.50;;;;;;5034091;28;20032;-67
2023/06/13 07:08:28;;;;;;;2.40;1.73;;;25.40;40.70;;;;;;5038434;28;20029;-67
2023/06/13 07:10:54;;;;;;;2.50;1.40;;;25.40;40.60;;;;;;5036115;28;20025;-66
2023/06/13 07:13:19;;;;;;;2.38;1.50;;;25.40;40.50;;;;;;5039007;28;20092;-67
2023/06/13 07:15:45;;;;;;;2.63;1.70;;;25.40;40.60;;;;;;5037860;28;20014;-66
2023/06/13 07:18:11;;;;;;;3.45;1.45;;;25.40;40.60;;;;;;5035574;28;20033;-66
2023/06/13 07:20:36;;;;;;;2.83;1.80;;;25.40;40.50;;;;;;5032446;28;20110;-66
2023/06/13 07:23:02;;;;;;;1.90;1.50;;;25.50;40.50;;;;;;5035935;28;20448;-66
2023/06/13 07:25:28;;;;;;;2.00;1.45;;;25.50;40.50;;;;;;5033760;28;20508;-65
2023/06/13 07:27:54;;;;;;;2.17;1.40;;;25.50;40.30;;;;;;5034989;28;20022;-66
2023/06/13 07:30:20;;;;;;;1.95;1.52;;;25.50;40.20;;;;;;5034627;28;20036;-65
2023/06/13 07:32:46;;;;;;;3.17;1.30;;;25.50;40.30;;;;;;5036115;28;20025;-65
2023/06/13 07:35:14;;;;;;;1.98;1.30;;;25.50;40.20;;;;;;5038491;28;20028;-66
2023/06/13 07:37:40;;;;;;;2.28;1.50;;;25.50;39.80;;;;;;5034519;28;20110;-66
2023/06/13 07:40:08;;;;;;;2.78;1.50;;;25.50;39.60;;;;;;5037316;28;20432;-66
2023/06/13 07:42:33;;;;;;;2.92;1.60;;;25.50;39.60;;;;;;5033071;28;20021;-66
2023/06/13 07:44:59;;;;;;;1.90;1.40;;;25.50;39.70;;;;;;5035281;28;20044;-67
2023/06/13 07:47:25;;;;;;;2.20;1.33;;;25.50;39.80;;;;;;5034137;28;20071;-66
2023/06/13 07:49:50;;;;;;;2.20;1.50;;;25.50;39.90;;;;;;5036097;28;20060;-66
2023/06/13 07:52:16;;;;;;;2.30;1.40;;;25.50;40.00;;;;;;5039163;28;20098;-73
2023/06/13 07:54:42;;;;;;;2.22;1.48;;;25.50;40.10;;;;;;5035279;28;20043;-67
2023/06/13 07:57:07;;;;;;;3.63;1.38;;;25.50;40.30;;;;;;5033764;28;20555;-67
2023/06/13 07:59:33;;;;;;;3.40;1.60;;;25.50;40.20;;;;;;5035632;28;20476;-67
2023/06/13 08:01:58;;;;;;;2.85;1.50;;;25.50;40.20;;;;;;5018653;28;20032;-66
2023/06/13 08:04:25;;;;;;;2.65;1.55;;;25.50;40.20;;;;;;5036347;28;20412;-66
2023/06/13 08:06:50;;;;;;;2.20;1.30;;;25.60;40.30;;;;;;5035234;28;20030;-66
2023/06/13 08:09:17;;;;;;;2.53;1.50;;;25.60;40.40;;;;;;5035838;28;20088;-66
2023/06/13 08:11:44;;;;;;;2.10;1.27;;;25.60;40.40;;;;;;5028292;28;20059;-66
2023/06/13 08:14:12;;;;;;;2.75;2.00;;;25.60;40.60;;;;;;5033499;28;20104;-66
2023/06/13 08:16:38;;;;;;;2.50;1.50;;;25.60;40.70;;;;;;5033638;28;20025;-68
2023/06/13 08:19:04;;;;;;;1.63;1.40;;;25.60;40.70;;;;;;5029118;28;20085;-68
2023/06/13 08:21:33;;;;;;;2.00;1.45;;;25.60;40.70;;;;;;5034698;28;20028;-71
2023/06/13 08:24:01;;;;;;;2.58;1.67;;;25.60;40.80;;;;;;5035444;28;20515;-66
2023/06/13 08:26:32;;;;;;;2.20;1.60;;;25.60;40.90;;;;;;5031450;28;20511;-65
2023/06/13 08:29:01;;;;;;;1.90;1.30;;;25.60;40.90;;;;;;5032257;28;20042;-66
2023/06/13 08:31:27;;;;;;;2.85;1.30;;;25.70;41.00;;;;;;5030650;28;20384;-66
2023/06/13 08:33:55;;;;;;;1.95;1.48;;;25.60;41.00;;;;;;5034602;28;20042;-67
2023/06/13 08:36:21;;;;;;;1.90;1.30;;;25.60;41.00;;;;;;5030847;28;20049;-65
2023/06/13 08:38:47;;;;;;;2.90;1.33;;;25.60;41.10;;;;;;5028310;28;20029;-69
2023/06/13 08:41:14;;;;;;;1.83;1.40;;;25.60;41.30;;;;;;5033668;28;20044;-65
2023/06/13 08:43:41;;;;;;;1.92;1.30;;;25.60;41.30;;;;;;5034036;28;20441;-66
2023/06/13 08:46:07;;;;;;;1.85;1.45;;;25.70;41.30;;;;;;5033707;28;20083;-66
2023/06/13 08:48:32;;;;;;;3.03;1.55;;;25.70;41.30;;;;;;5029573;28;20029;-65
2023/06/13 08:51:04;;;;;;;2.88;1.30;;;25.70;41.30;;;;;;5035703;28;20064;-66
2023/06/13 08:53:32;;;;;;;3.08;1.40;;;25.70;41.30;;;;;;5036036;28;20527;-65
2023/06/13 08:56:03;;;;;;;1.80;1.30;;;25.70;41.30;;;;;;5033585;28;20354;-66
2023/06/13 08:58:35;;;;;;;2.08;1.20;;;25.70;41.30;;;;;;5034535;28;20026;-67
2023/06/13 09:01:02;;;;;;;2.10;1.40;;;25.70;41.30;;;;;;5032043;28;20017;-65
2023/06/13 09:03:30;;;;;;;2.22;1.30;;;25.70;41.40;;;;;;5033152;28;20101;-65
2023/06/13 09:05:56;;;;;;;2.30;1.58;;;25.70;41.30;;;;;;5035314;28;20071;-66
2023/06/13 09:08:23;;;;;;;2.92;1.75;;;25.70;41.30;;;;;;5031372;28;20026;-66
2023/06/13 09:10:50;;;;;;;1.50;1.27;;;25.70;41.40;;;;;;5033267;28;20052;-66
2023/06/13 09:13:17;;;;;;;2.17;1.40;;;25.80;41.40;;;;;;5035983;28;20026;-65
2023/06/13 09:15:44;;;;;;;2.72;1.50;;;25.70;41.40;;;;;;5029994;28;20121;-66
2023/06/13 09:18:14;;;;;;;1.98;1.35;;;25.80;41.40;;;;;;5026467;28;20540;-66
2023/06/13 09:20:40;;;;;;;1.67;1.30;;;25.80;41.40;;;;;;5032875;28;20026;-65
2023/06/13 09:23:07;;;;;;;2.65;1.42;;;25.80;41.40;;;;;;5035813;28;20110;-65
2023/06/13 09:25:36;;;;;;;2.97;1.30;;;25.80;41.50;;;;;;5031778;28;20616;-65
2023/06/13 09:28:37;;;;;;;2.25;1.40;;;25.80;41.40;;;;;;5035899;28;20602;-67
2023/06/13 09:31:02;;;;;;;2.83;1.48;;;25.80;41.40;;;;;;5033764;28;20112;-65
2023/06/13 09:33:28;;;;;;;2.20;1.40;;;25.80;41.50;;;;;;5031609;28;20460;-66
2023/06/13 09:35:54;;;;;;;2.00;1.50;;;25.80;41.50;;;;;;5035309;28;20031;-66
2023/06/13 09:38:24;;;;;;;2.30;1.50;;;25.80;41.60;;;;;;5035370;28;20105;-65
2023/06/13 09:40:54;;;;;;;2.72;1.45;;;25.80;41.40;;;;;;5032965;28;20408;-65
2023/06/13 09:43:20;;;;;;;1.73;1.20;;;25.80;41.50;;;;;;5035567;28;20044;-65
2023/06/13 09:45:48;;;;;;;3.22;1.40;;;25.80;41.40;;;;;;5019087;28;20029;-64
2023/06/13 09:48:13;;;;;;;2.22;1.52;;;25.80;41.40;;;;;;5033576;28;20469;-64
2023/06/13 09:50:40;;;;;;;2.15;1.50;;;25.80;41.50;;;;;;5041962;28;20043;-65
2023/06/13 09:53:07;;;;;;;3.63;1.50;;;25.80;41.50;;;;;;5032837;28;20033;-65
2023/06/13 09:55:33;;;;;;;1.95;1.45;;;25.80;41.50;;;;;;5034177;28;20503;-65
2023/06/13 09:57:59;;;;;;;2.05;1.35;;;25.80;41.40;;;;;;5037935;28;20032;-67
2023/06/13 10:00:25;;;;;;;1.40;1.10;;;25.90;41.60;;;;;;5035808;28;20017;-64
2023/06/13 10:02:50;;;;;;;2.10;1.40;;;25.90;41.70;;;;;;5037696;28;20057;-64
2023/06/13 10:05:16;;;;;;;2.20;1.23;;;25.80;41.60;;;;;;5004792;28;20042;-63
2023/06/13 10:07:42;;;;;;;1.95;1.15;;;25.80;41.50;;;;;;5037670;28;20058;-66
2023/06/13 10:10:07;;;;;;;1.80;1.13;;;25.80;41.60;;;;;;5041043;28;20025;-66
2023/06/13 10:12:38;;;;;;;2.47;1.30;;;25.80;41.70;;;;;;5029721;28;20483;-67
2023/06/13 10:15:06;;;;;;;2.90;1.20;;;25.80;41.70;;;;;;5033678;28;20037;-65
2023/06/13 10:17:36;;;;;;;1.75;1.10;;;25.80;41.80;;;;;;5033233;28;20451;-64
2023/06/13 10:20:10;;;;;;;1.65;1.00;;;25.90;41.90;;;;;;5037315;28;20359;-66
2023/06/13 10:22:38;;;;;;;1.60;1.13;;;25.80;41.80;;;;;;5037083;28;20022;-65
2023/06/13 10:25:10;;;;;;;1.55;1.10;;;25.80;41.80;;;;;;5032082;28;20029;-65
2023/06/13 10:27:40;;;;;;;2.20;1.30;;;25.90;41.90;;;;;;5032941;28;20103;-65
2023/06/13 10:30:07;;;;;;;2.40;1.20;;;25.80;41.90;;;;;;5037816;28;20116;-66
2023/06/13 10:32:38;;;;;;;2.05;1.13;;;25.80;41.90;;;;;;5039207;28;20048;-66
2023/06/13 10:35:24;;;;;;;1.58;1.13;;;25.90;42.00;;;;;;5039328;28;20037;-66
2023/06/13 10:37:53;;;;;;;1.83;1.15;;;25.90;42.00;;;;;;5035320;28;20481;-66
2023/06/13 10:40:37;;;;;;;1.52;1.27;;;25.90;42.00;;;;;;5036257;28;20067;-66
2023/06/13 10:43:25;;;;;;;1.80;1.08;;;25.90;42.00;;;;;;5034315;28;20025;-66
2023/06/13 10:45:52;;;;;;;1.88;1.27;;;25.90;42.10;;;;;;5030448;28;20120;-65
2023/06/13 10:48:31;;;;;;;1.48;1.05;;;25.90;42.10;;;;;;5037636;28;20492;-66
2023/06/13 10:50:58;;;;;;;1.48;1.15;;;25.90;42.10;;;;;;5021618;28;20033;-67
2023/06/13 10:53:27;;;;;;;1.83;1.10;;;25.90;42.20;;;;;;5037172;28;20033;-66
2023/06/13 10:56:00;;;;;;;2.20;1.10;;;25.90;42.10;;;;;;5037679;28;20067;-67
2023/06/13 10:58:26;;;;;;;1.77;1.10;;;25.90;42.10;;;;;;5033980;28;20364;-66
2023/06/13 11:00:51;;;;;;;1.95;1.27;;;25.90;42.10;;;;;;5037861;28;20043;-65
2023/06/13 11:03:17;;;;;;;1.42;1.00;;;25.90;42.10;;;;;;5038633;28;20025;-66
2023/06/13 11:05:45;;;;;;;1.42;1.10;;;25.90;42.10;;;;;;5037928;28;20029;-65
2023/06/13 11:08:16;;;;;;;3.13;1.10;;;25.90;42.10;;;;;;5036248;28;20495;-65
2023/06/13 11:10:46;;;;;;;1.30;1.00;;;25.90;42.10;;;;;;5032472;28;20022;-64
2023/06/13 11:13:22;;;;;;;1.98;1.15;;;25.90;42.10;;;;;;5037312;28;20033;-64
2023/06/13 11:15:50;;;;;;;1.40;1.10;;;25.90;42.10;;;;;;5036588;28;20036;-66
2023/06/13 11:18:25;;;;;;;1.67;1.17;;;25.90;42.10;;;;;;5039017;28;20096;-66
2023/06/13 11:20:56;;;;;;;1.45;1.13;;;25.90;42.10;;;;;;5036437;28;20026;-64
2023/06/13 11:23:23;;;;;;;1.50;1.00;;;25.90;42.10;;;;;;5037589;28;20025;-64
2023/06/13 11:25:50;;;;;;;1.95;1.15;;;25.90;42.10;;;;;;5034385;28;20057;-66
2023/06/13 11:28:18;;;;;;;2.22;1.15;;;25.90;42.10;;;;;;5034484;28;20047;-66
2023/06/13 11:30:49;;;;;;;1.98;0.98;;;26.00;42.20;;;;;;5037602;28;20044;-66
2023/06/13 11:33:19;;;;;;;1.33;1.00;;;26.00;42.20;;;;;;5035222;28;20505;-65
2023/06/13 11:35:54;;;;;;;1.35;0.98;;;25.90;42.10;;;;;;5036026;28;20098;-66
2023/06/13 11:38:40;;;;;;;1.60;1.10;;;26.00;42.20;;;;;;5035411;28;20036;-65
2023/06/13 11:41:05;;;;;;;1.13;0.98;;;26.00;42.20;;;;;;5034791;28;20028;-65
2023/06/13 11:43:32;;;;;;;2.15;0.95;;;26.00;42.20;;;;;;5035793;28;20389;-65
2023/06/13 11:45:59;;;;;;;2.47;1.13;;;26.00;42.20;;;;;;5039308;28;20218;-65
2023/06/13 11:48:26;;;;;;;1.88;1.10;;;26.00;42.20;;;;;;5036896;28;20097;-65
2023/06/13 11:50:52;;;;;;;1.60;1.17;;;26.00;42.20;;;;;;5034244;28;20067;-67
2023/06/13 11:53:19;;;;;;;1.10;1.00;;;26.00;42.20;;;;;;5036223;28;20025;-67
2023/06/13 11:55:46;;;;;;;1.35;1.00;;;26.00;42.10;;;;;;5036021;28;20037;-68
2023/06/13 11:58:11;;;;;;;2.30;1.27;;;26.00;42.00;;;;;;5035083;28;20040;-67
2023/06/13 12:00:57;;;;;;;1.35;1.00;;;26.00;41.90;;;;;;5037058;28;20021;-67
2023/06/13 12:03:23;;;;;;;1.88;1.10;;;26.00;41.70;;;;;;5019607;28;20021;-67
2023/06/13 12:05:50;;;;;;;2.25;1.10;;;26.10;41.80;;;;;;5021676;28;20132;-68
2023/06/13 12:08:16;;;;;;;1.73;1.20;;;26.00;41.70;;;;;;5033069;28;20080;-67
2023/06/13 12:10:46;;;;;;;3.13;1.30;;;26.10;41.80;;;;;;5035862;28;20094;-65
2023/06/13 12:13:15;;;;;;;1.92;1.10;;;26.10;41.90;;;;;;5034837;28;20373;-65
2023/06/13 12:15:41;;;;;;;2.13;1.40;;;26.10;41.60;;;;;;5034876;28;20030;-65
2023/06/13 12:18:06;;;;;;;1.90;1.40;;;26.10;41.50;;;;;;5033793;28;20044;-65
2023/06/13 12:20:36;;;;;;;1.80;1.10;;;26.10;41.40;;;;;;5032665;28;20025;-64
2023/06/13 12:23:02;;;;;;;4.75;1.50;;;26.10;41.50;;;;;;5036893;28;20104;-65
2023/06/13 12:25:30;;;;;;;1.25;1.00;;;26.10;42.00;;;;;;5036449;28;20064;-66
2023/06/13 12:28:01;;;;;;;2.00;1.20;;;26.10;41.40;;;;;;5016537;28;20065;-66
2023/06/13 12:30:29;;;;;;;3.20;1.30;;;26.10;41.10;;;;;;5038159;28;20059;-64
2023/06/13 12:32:57;;;;;;;1.80;1.30;;;26.10;41.10;;;;;;5039006;28;20030;-65
2023/06/13 12:35:24;;;;;;;1.70;1.20;;;26.10;41.80;;;;;;5035621;28;20104;-65
2023/06/13 12:37:58;;;;;;;1.48;1.10;;;26.10;41.20;;;;;;5033276;28;20026;-65
2023/06/13 12:40:30;;;;;;;1.50;1.10;;;26.10;41.00;;;;;;5019762;28;20116;-66
2023/06/13 12:42:57;;;;;;;1.98;1.30;;;26.10;41.10;;;;;;5033072;28;20022;-65
2023/06/13 12:45:25;;;;;;;2.00;1.60;;;26.10;41.30;;;;;;5034932;28;20037;-65
2023/06/13 12:47:56;;;;;;;2.03;1.45;;;26.10;40.80;;;;;;5037319;28;20025;-65
2023/06/13 12:50:23;;;;;;;1.90;1.40;;;26.10;40.60;;;;;;5031147;28;20021;-65